sensor_id;sensor_type;location;lat;lon;timestamp;temperature;humidity
5136;DHT22;2586;48.710;9.202;2022-10-31T00:01:13;10.60;14.40
5136;DHT22;2586;48.710;9.202;2022-10-31T00:03:39;10.60;1.00
5136;DHT22;2586;48.710;9.202;2022-10-31T00:06:05;10.60;27.80
5136;DHT22;2586;48.710;9.202;2022-10-31T00:08:30;10.60;70.60
5136;DHT22;2586;48.710;9.202;2022-10-31T00:10:56;10.70;82.80
5136;DHT22;2586;48.710;9.202;2022-10-31T00:13:21;10.70;73.40
5136;DHT22;2586;48.710;9.202;2022-10-31T00:15:47;10.60;58.60
5136;DHT22;2586;48.710;9.202;2022-10-31T00:18:13;10.60;49.70
5136;DHT22;2586;48.710;9.202;2022-10-31T00:20:39;10.60;68.20
5136;DHT22;2586;48.710;9.202;2022-10-31T00:23:06;10.60;27.80
5136;DHT22;2586;48.710;9.202;2022-10-31T00:25:39;10.60;12.30
5136;DHT22;2586;48.710;9.202;2022-10-31T00:28:06;10.50;27.30
5136;DHT22;2586;48.710;9.202;2022-10-31T00:30:33;10.50;64.70
5136;DHT22;2586;48.710;9.202;2022-10-31T00:32:58;10.50;23.10
5136;DHT22;2586;48.710;9.202;2022-10-31T00:35:24;10.40;1.00
5136;DHT22;2586;48.710;9.202;2022-10-31T00:37:50;10.40;1.00
5136;DHT22;2586;48.710;9.202;2022-10-31T00:40:15;10.40;16.40
5136;DHT22;2586;48.710;9.202;2022-10-31T00:42:41;10.40;12.30
5136;DHT22;2586;48.710;9.202;2022-10-31T00:45:08;10.40;24.80
5136;DHT22;2586;48.710;9.202;2022-10-31T00:47:34;10.40;46.50
5136;DHT22;2586;48.710;9.202;2022-10-31T00:50:00;10.40;28.50
5136;DHT22;2586;48.710;9.202;2022-10-31T00:52:25;10.40;42.70
5136;DHT22;2586;48.710;9.202;2022-10-31T00:54:51;10.30;31.20
5136;DHT22;2586;48.710;9.202;2022-10-31T00:57:16;10.30;67.10
5136;DHT22;2586;48.710;9.202;2022-10-31T00:59:42;10.30;69.10
5136;DHT22;2586;48.710;9.202;2022-10-31T01:02:07;10.20;53.30
5136;DHT22;2586;48.710;9.202;2022-10-31T01:04:33;10.10;52.10
5136;DHT22;2586;48.710;9.202;2022-10-31T01:06:58;10.10;47.40
5136;DHT22;2586;48.710;9.202;2022-10-31T01:09:24;10.10;93.00
5136;DHT22;2586;48.710;9.202;2022-10-31T01:11:49;10.10;73.10
5136;DHT22;2586;48.710;9.202;2022-10-31T01:14:15;10.10;91.20
5136;DHT22;2586;48.710;9.202;2022-10-31T01:16:40;10.10;95.70
5136;DHT22;2586;48.710;9.202;2022-10-31T01:19:06;10.10;72.20
5136;DHT22;2586;48.710;9.202;2022-10-31T01:21:33;10.10;95.20
5136;DHT22;2586;48.710;9.202;2022-10-31T01:23:59;10.10;94.10
5136;DHT22;2586;48.710;9.202;2022-10-31T01:26:27;10.10;67.50
5136;DHT22;2586;48.710;9.202;2022-10-31T01:29:05;10.10;79.40
5136;DHT22;2586;48.710;9.202;2022-10-31T01:31:33;10.10;27.10
5136;DHT22;2586;48.710;9.202;2022-10-31T01:33:59;10.00;29.20
5136;DHT22;2586;48.710;9.202;2022-10-31T01:36:29;10.00;51.30
5136;DHT22;2586;48.710;9.202;2022-10-31T01:39:00;10.00;48.70
5136;DHT22;2586;48.710;9.202;2022-10-31T01:41:28;10.00;1.00
5136;DHT22;2586;48.710;9.202;2022-10-31T01:44:43;10.00;1.00
5136;DHT22;2586;48.710;9.202;2022-10-31T01:47:08;9.90;1.00
5136;DHT22;2586;48.710;9.202;2022-10-31T01:49:49;9.80;1.00
5136;DHT22;2586;48.710;9.202;2022-10-31T01:52:55;9.90;4.90
5136;DHT22;2586;48.710;9.202;2022-10-31T01:57:48;9.80;6.20
5136;DHT22;2586;48.710;9.202;2022-10-31T02:00:15;9.80;55.60
5136;DHT22;2586;48.710;9.202;2022-10-31T02:02:42;9.70;72.50
5136;DHT22;2586;48.710;9.202;2022-10-31T02:05:12;9.70;91.70
5136;DHT22;2586;48.710;9.202;2022-10-31T02:07:44;9.70;93.90
5136;DHT22;2586;48.710;9.202;2022-10-31T02:10:11;9.70;78.70
5136;DHT22;2586;48.710;9.202;2022-10-31T02:12:37;9.70;51.60
5136;DHT22;2586;48.710;9.202;2022-10-31T02:15:04;9.80;25.60
5136;DHT22;2586;48.710;9.202;2022-10-31T02:17:31;9.80;1.00
5136;DHT22;2586;48.710;9.202;2022-10-31T02:33:48;9.70;1.00
5136;DHT22;2586;48.710;9.202;2022-10-31T02:36:27;9.60;1.00
5136;DHT22;2586;48.710;9.202;2022-10-31T02:39:10;9.60;1.00
5136;DHT22;2586;48.710;9.202;2022-10-31T02:44:44;9.40;9.90
5136;DHT22;2586;48.710;9.202;2022-10-31T02:47:18;9.40;15.30
5136;DHT22;2586;48.710;9.202;2022-10-31T02:50:00;9.30;51.20
5136;DHT22;2586;48.710;9.202;2022-10-31T02:52:30;9.20;95.90
5136;DHT22;2586;48.710;9.202;2022-10-31T02:54:56;9.20;99.90
5136;DHT22;2586;48.710;9.202;2022-10-31T02:57:33;9.10;99.90
5136;DHT22;2586;48.710;9.202;2022-10-31T03:00:06;9.00;99.90
5136;DHT22;2586;48.710;9.202;2022-10-31T03:05:29;9.10;99.90
5136;DHT22;2586;48.710;9.202;2022-10-31T03:08:08;9.10;99.90
5136;DHT22;2586;48.710;9.202;2022-10-31T03:10:47;9.20;99.90
5136;DHT22;2586;48.710;9.202;2022-10-31T03:13:24;9.30;99.90
5136;DHT22;2586;48.710;9.202;2022-10-31T03:18:40;9.30;99.90
5136;DHT22;2586;48.710;9.202;2022-10-31T03:23:37;9.20;85.40
5136;DHT22;2586;48.710;9.202;2022-10-31T03:26:06;9.10;92.10
5136;DHT22;2586;48.710;9.202;2022-10-31T03:28:54;9.00;99.90
5136;DHT22;2586;48.710;9.202;2022-10-31T03:31:24;9.00;99.90
5136;DHT22;2586;48.710;9.202;2022-10-31T03:33:52;9.10;99.90
5136;DHT22;2586;48.710;9.202;2022-10-31T03:36:18;9.00;99.90
5136;DHT22;2586;48.710;9.202;2022-10-31T03:38:45;9.00;99.90
5136;DHT22;2586;48.710;9.202;2022-10-31T03:41:18;9.00;99.90
5136;DHT22;2586;48.710;9.202;2022-10-31T03:43:52;8.90;99.90
5136;DHT22;2586;48.710;9.202;2022-10-31T03:46:18;8.90;99.90
5136;DHT22;2586;48.710;9.202;2022-10-31T03:48:44;8.90;99.90
5136;DHT22;2586;48.710;9.202;2022-10-31T03:51:14;8.90;99.90
5136;DHT22;2586;48.710;9.202;2022-10-31T03:53:57;9.00;99.90
5136;DHT22;2586;48.710;9.202;2022-10-31T03:56:33;9.00;99.90
5136;DHT22;2586;48.710;9.202;2022-10-31T03:59:07;9.00;99.90
5136;DHT22;2586;48.710;9.202;2022-10-31T04:01:37;9.00;99.90
5136;DHT22;2586;48.710;9.202;2022-10-31T04:04:05;9.00;99.90
5136;DHT22;2586;48.710;9.202;2022-10-31T04:06:34;9.00;99.90
5136;DHT22;2586;48.710;9.202;2022-10-31T04:09:03;9.00;99.90
5136;DHT22;2586;48.710;9.202;2022-10-31T04:11:33;9.00;99.90
5136;DHT22;2586;48.710;9.202;2022-10-31T04:14:01;8.90;99.90
5136;DHT22;2586;48.710;9.202;2022-10-31T04:16:28;8.90;99.90
5136;DHT22;2586;48.710;9.202;2022-10-31T04:18:54;8.80;99.90
5136;DHT22;2586;48.710;9.202;2022-10-31T04:21:19;8.80;99.90
5136;DHT22;2586;48.710;9.202;2022-10-31T04:23:51;8.80;99.90
5136;DHT22;2586;48.710;9.202;2022-10-31T04:26:17;8.80;99.90
5136;DHT22;2586;48.710;9.202;2022-10-31T04:28:42;8.80;99.90
5136;DHT22;2586;48.710;9.202;2022-10-31T04:31:10;8.70;99.90
5136;DHT22;2586;48.710;9.202;2022-10-31T04:33:36;8.70;99.90
5136;DHT22;2586;48.710;9.202;2022-10-31T04:36:02;8.70;99.90
5136;DHT22;2586;48.710;9.202;2022-10-31T04:38:27;8.70;94.90
5136;DHT22;2586;48.710;9.202;2022-10-31T04:40:53;8.70;80.80
5136;DHT22;2586;48.710;9.202;2022-10-31T04:43:18;8.70;59.50
5136;DHT22;2586;48.710;9.202;2022-10-31T04:45:44;8.70;39.40
5136;DHT22;2586;48.710;9.202;2022-10-31T04:48:09;8.70;21.30
5136;DHT22;2586;48.710;9.202;2022-10-31T04:50:35;8.60;1.00
5136;DHT22;2586;48.710;9.202;2022-10-31T04:53:01;8.60;1.00
5136;DHT22;2586;48.710;9.202;2022-10-31T04:55:26;8.60;1.00
5136;DHT22;2586;48.710;9.202;2022-10-31T04:57:52;8.60;1.00
5136;DHT22;2586;48.710;9.202;2022-10-31T05:00:19;8.50;1.00
5136;DHT22;2586;48.710;9.202;2022-10-31T05:02:49;8.50;15.00
5136;DHT22;2586;48.710;9.202;2022-10-31T05:05:17;8.40;32.30
5136;DHT22;2586;48.710;9.202;2022-10-31T05:07:44;8.40;57.70
5136;DHT22;2586;48.710;9.202;2022-10-31T05:10:12;8.40;78.40
5136;DHT22;2586;48.710;9.202;2022-10-31T05:12:44;8.50;88.80
5136;DHT22;2586;48.710;9.202;2022-10-31T05:15:11;8.50;97.20
5136;DHT22;2586;48.710;9.202;2022-10-31T05:17:36;8.60;99.90
5136;DHT22;2586;48.710;9.202;2022-10-31T05:20:02;8.60;99.90
5136;DHT22;2586;48.710;9.202;2022-10-31T05:22:27;8.50;99.90
5136;DHT22;2586;48.710;9.202;2022-10-31T05:24:53;8.50;99.90
5136;DHT22;2586;48.710;9.202;2022-10-31T05:27:18;8.50;99.90
5136;DHT22;2586;48.710;9.202;2022-10-31T05:29:44;8.40;99.90
5136;DHT22;2586;48.710;9.202;2022-10-31T05:32:09;8.40;99.90
5136;DHT22;2586;48.710;9.202;2022-10-31T05:34:35;8.40;99.90
5136;DHT22;2586;48.710;9.202;2022-10-31T05:37:00;8.30;99.90
5136;DHT22;2586;48.710;9.202;2022-10-31T05:39:26;8.30;99.90
5136;DHT22;2586;48.710;9.202;2022-10-31T05:41:51;8.30;99.90
5136;DHT22;2586;48.710;9.202;2022-10-31T05:44:17;8.30;99.90
5136;DHT22;2586;48.710;9.202;2022-10-31T05:46:42;8.20;99.90
5136;DHT22;2586;48.710;9.202;2022-10-31T05:49:08;8.20;99.90
5136;DHT22;2586;48.710;9.202;2022-10-31T05:51:34;8.20;99.90
5136;DHT22;2586;48.710;9.202;2022-10-31T05:53:59;8.20;99.90
5136;DHT22;2586;48.710;9.202;2022-10-31T05:56:25;8.20;99.90
5136;DHT22;2586;48.710;9.202;2022-10-31T05:58:50;8.10;99.90
5136;DHT22;2586;48.710;9.202;2022-10-31T06:01:16;8.10;99.90
5136;DHT22;2586;48.710;9.202;2022-10-31T06:03:41;8.10;99.90
5136;DHT22;2586;48.710;9.202;2022-10-31T06:06:07;8.00;99.90
5136;DHT22;2586;48.710;9.202;2022-10-31T06:08:33;8.10;99.90
5136;DHT22;2586;48.710;9.202;2022-10-31T06:10:58;8.00;99.90
5136;DHT22;2586;48.710;9.202;2022-10-31T06:13:24;8.00;99.90
5136;DHT22;2586;48.710;9.202;2022-10-31T06:15:49;8.00;99.90
5136;DHT22;2586;48.710;9.202;2022-10-31T06:18:15;8.00;99.90
5136;DHT22;2586;48.710;9.202;2022-10-31T06:20:40;8.00;91.40
5136;DHT22;2586;48.710;9.202;2022-10-31T06:23:06;8.10;77.90
5136;DHT22;2586;48.710;9.202;2022-10-31T06:25:32;8.00;27.80
5136;DHT22;2586;48.710;9.202;2022-10-31T06:27:58;8.00;32.70
5136;DHT22;2586;48.710;9.202;2022-10-31T06:30:24;8.10;18.70
5136;DHT22;2586;48.710;9.202;2022-10-31T06:32:49;8.10;1.00
5136;DHT22;2586;48.710;9.202;2022-10-31T06:35:15;8.10;1.00
5136;DHT22;2586;48.710;9.202;2022-10-31T06:37:41;8.20;1.00
5136;DHT22;2586;48.710;9.202;2022-10-31T06:40:07;8.20;1.00
5136;DHT22;2586;48.710;9.202;2022-10-31T06:42:32;8.30;1.00
5136;DHT22;2586;48.710;9.202;2022-10-31T06:44:58;8.40;1.00
5136;DHT22;2586;48.710;9.202;2022-10-31T06:47:23;8.50;1.00
5136;DHT22;2586;48.710;9.202;2022-10-31T06:49:49;8.60;1.00
5136;DHT22;2586;48.710;9.202;2022-10-31T06:52:14;8.70;1.00
5136;DHT22;2586;48.710;9.202;2022-10-31T06:54:40;8.80;1.00
5136;DHT22;2586;48.710;9.202;2022-10-31T06:57:06;8.90;1.00
5136;DHT22;2586;48.710;9.202;2022-10-31T06:59:31;9.00;1.00
5136;DHT22;2586;48.710;9.202;2022-10-31T07:01:58;9.00;1.00
5136;DHT22;2586;48.710;9.202;2022-10-31T07:04:23;9.10;1.00
5136;DHT22;2586;48.710;9.202;2022-10-31T07:06:51;9.10;1.00
5136;DHT22;2586;48.710;9.202;2022-10-31T07:09:17;9.20;1.00
5136;DHT22;2586;48.710;9.202;2022-10-31T07:11:43;9.20;1.00
5136;DHT22;2586;48.710;9.202;2022-10-31T07:14:08;9.30;1.00
5136;DHT22;2586;48.710;9.202;2022-10-31T07:16:34;9.40;1.00
5136;DHT22;2586;48.710;9.202;2022-10-31T07:18:59;9.40;1.00
5136;DHT22;2586;48.710;9.202;2022-10-31T07:21:25;9.40;1.00
5136;DHT22;2586;48.710;9.202;2022-10-31T07:23:50;9.60;1.00
5136;DHT22;2586;48.710;9.202;2022-10-31T07:26:16;9.50;99.90
5136;DHT22;2586;48.710;9.202;2022-10-31T07:28:41;9.50;99.90
5136;DHT22;2586;48.710;9.202;2022-10-31T07:31:07;9.60;99.90
5136;DHT22;2586;48.710;9.202;2022-10-31T07:33:33;9.60;13.90
5136;DHT22;2586;48.710;9.202;2022-10-31T07:35:58;9.70;47.00
5136;DHT22;2586;48.710;9.202;2022-10-31T07:38:24;9.70;1.00
5136;DHT22;2586;48.710;9.202;2022-10-31T07:40:51;9.80;99.90
5136;DHT22;2586;48.710;9.202;2022-10-31T07:43:18;9.90;99.90
5136;DHT22;2586;48.710;9.202;2022-10-31T07:45:48;10.00;99.90
5136;DHT22;2586;48.710;9.202;2022-10-31T07:48:14;10.10;99.90
5136;DHT22;2586;48.710;9.202;2022-10-31T07:50:39;10.30;1.00
5136;DHT22;2586;48.710;9.202;2022-10-31T07:53:07;10.20;99.90
5136;DHT22;2586;48.710;9.202;2022-10-31T07:55:34;10.30;1.00
5136;DHT22;2586;48.710;9.202;2022-10-31T07:58:02;10.30;99.90
5136;DHT22;2586;48.710;9.202;2022-10-31T08:00:28;10.20;1.00
5136;DHT22;2586;48.710;9.202;2022-10-31T08:03:02;10.20;1.00
5136;DHT22;2586;48.710;9.202;2022-10-31T08:05:29;10.30;99.90
5136;DHT22;2586;48.710;9.202;2022-10-31T08:07:55;10.50;99.90
5136;DHT22;2586;48.710;9.202;2022-10-31T08:10:21;10.70;1.00
5136;DHT22;2586;48.710;9.202;2022-10-31T08:12:47;11.00;99.90
5136;DHT22;2586;48.710;9.202;2022-10-31T08:15:13;11.20;99.90
5136;DHT22;2586;48.710;9.202;2022-10-31T08:17:39;11.30;99.90
5136;DHT22;2586;48.710;9.202;2022-10-31T08:20:07;11.50;1.00
5136;DHT22;2586;48.710;9.202;2022-10-31T08:22:32;11.60;1.00
5136;DHT22;2586;48.710;9.202;2022-10-31T08:24:58;11.70;99.90
5136;DHT22;2586;48.710;9.202;2022-10-31T08:27:23;11.80;99.90
5136;DHT22;2586;48.710;9.202;2022-10-31T08:29:49;12.00;99.90
5136;DHT22;2586;48.710;9.202;2022-10-31T08:32:14;12.00;99.90
5136;DHT22;2586;48.710;9.202;2022-10-31T08:34:40;12.00;99.90
5136;DHT22;2586;48.710;9.202;2022-10-31T08:37:05;12.00;99.90
5136;DHT22;2586;48.710;9.202;2022-10-31T08:39:31;12.00;99.90
5136;DHT22;2586;48.710;9.202;2022-10-31T08:41:56;12.20;99.90
5136;DHT22;2586;48.710;9.202;2022-10-31T08:44:22;12.40;99.90
5136;DHT22;2586;48.710;9.202;2022-10-31T08:46:47;12.30;1.00
5136;DHT22;2586;48.710;9.202;2022-10-31T08:49:13;12.30;99.90
5136;DHT22;2586;48.710;9.202;2022-10-31T08:51:39;12.30;1.00
5136;DHT22;2586;48.710;9.202;2022-10-31T08:54:04;12.40;36.50
5136;DHT22;2586;48.710;9.202;2022-10-31T08:56:30;12.40;99.90
5136;DHT22;2586;48.710;9.202;2022-10-31T08:58:55;12.40;1.00
5136;DHT22;2586;48.710;9.202;2022-10-31T09:01:21;12.50;99.90
5136;DHT22;2586;48.710;9.202;2022-10-31T09:03:47;12.70;1.00
5136;DHT22;2586;48.710;9.202;2022-10-31T09:06:12;12.90;1.00
5136;DHT22;2586;48.710;9.202;2022-10-31T09:08:38;13.10;99.90
5136;DHT22;2586;48.710;9.202;2022-10-31T09:11:04;13.20;1.00
5136;DHT22;2586;48.710;9.202;2022-10-31T09:13:32;13.30;1.00
5136;DHT22;2586;48.710;9.202;2022-10-31T09:15:58;13.30;1.00
5136;DHT22;2586;48.710;9.202;2022-10-31T09:18:24;13.40;1.00
5136;DHT22;2586;48.710;9.202;2022-10-31T09:20:53;13.50;1.00
5136;DHT22;2586;48.710;9.202;2022-10-31T09:23:20;13.70;1.00
5136;DHT22;2586;48.710;9.202;2022-10-31T09:25:48;13.70;99.90
5136;DHT22;2586;48.710;9.202;2022-10-31T09:28:15;13.70;1.00
5136;DHT22;2586;48.710;9.202;2022-10-31T09:30:41;13.70;99.90
5136;DHT22;2586;48.710;9.202;2022-10-31T09:33:10;13.60;99.90
5136;DHT22;2586;48.710;9.202;2022-10-31T09:35:36;13.70;1.00
5136;DHT22;2586;48.710;9.202;2022-10-31T09:38:05;13.80;1.00
5136;DHT22;2586;48.710;9.202;2022-10-31T09:46:04;14.30;11.90
5136;DHT22;2586;48.710;9.202;2022-10-31T09:51:06;14.50;99.90
5136;DHT22;2586;48.710;9.202;2022-10-31T09:53:40;14.50;99.90
5136;DHT22;2586;48.710;9.202;2022-10-31T09:56:13;14.60;1.00
5136;DHT22;2586;48.710;9.202;2022-10-31T09:58:46;14.70;99.90
5136;DHT22;2586;48.710;9.202;2022-10-31T10:03:57;15.10;99.90
5136;DHT22;2586;48.710;9.202;2022-10-31T10:06:27;15.10;1.00
5136;DHT22;2586;48.710;9.202;2022-10-31T10:08:53;15.20;78.50
5136;DHT22;2586;48.710;9.202;2022-10-31T10:24:59;15.90;1.00
5136;DHT22;2586;48.710;9.202;2022-10-31T10:27:58;16.20;99.90
5136;DHT22;2586;48.710;9.202;2022-10-31T10:30:39;16.30;99.90
5136;DHT22;2586;48.710;9.202;2022-10-31T10:33:33;16.30;1.00
5136;DHT22;2586;48.710;9.202;2022-10-31T10:36:04;16.40;99.90
5136;DHT22;2586;48.710;9.202;2022-10-31T10:38:46;16.50;99.90
5136;DHT22;2586;48.710;9.202;2022-10-31T10:41:17;16.40;99.90
5136;DHT22;2586;48.710;9.202;2022-10-31T10:43:43;16.30;99.90
5136;DHT22;2586;48.710;9.202;2022-10-31T10:46:26;16.20;99.90
5136;DHT22;2586;48.710;9.202;2022-10-31T10:54:41;16.30;22.60
5136;DHT22;2586;48.710;9.202;2022-10-31T10:57:18;16.20;76.30
5136;DHT22;2586;48.710;9.202;2022-10-31T10:59:46;16.10;99.90
5136;DHT22;2586;48.710;9.202;2022-10-31T11:02:21;16.20;99.90
5136;DHT22;2586;48.710;9.202;2022-10-31T11:04:54;16.20;99.90
5136;DHT22;2586;48.710;9.202;2022-10-31T11:07:21;16.30;1.00
5136;DHT22;2586;48.710;9.202;2022-10-31T11:09:47;16.50;99.90
5136;DHT22;2586;48.710;9.202;2022-10-31T11:12:30;16.80;99.90
5136;DHT22;2586;48.710;9.202;2022-10-31T11:14:59;17.10;1.00
5136;DHT22;2586;48.710;9.202;2022-10-31T11:17:36;17.80;99.90
5136;DHT22;2586;48.710;9.202;2022-10-31T11:22:37;18.50;1.00
5136;DHT22;2586;48.710;9.202;2022-10-31T11:25:23;18.90;99.90
5136;DHT22;2586;48.710;9.202;2022-10-31T11:28:00;19.20;97.20
5136;DHT22;2586;48.710;9.202;2022-10-31T11:30:25;19.20;1.00
5136;DHT22;2586;48.710;9.202;2022-10-31T11:32:51;19.10;1.00
5136;DHT22;2586;48.710;9.202;2022-10-31T11:35:19;19.20;1.00
5136;DHT22;2586;48.710;9.202;2022-10-31T11:37:46;19.50;1.00
5136;DHT22;2586;48.710;9.202;2022-10-31T11:40:18;19.70;1.00
5136;DHT22;2586;48.710;9.202;2022-10-31T11:42:44;20.00;1.00
5136;DHT22;2586;48.710;9.202;2022-10-31T11:47:46;20.10;99.90
5136;DHT22;2586;48.710;9.202;2022-10-31T11:50:20;20.10;99.90
5136;DHT22;2586;48.710;9.202;2022-10-31T11:52:47;20.00;99.90
5136;DHT22;2586;48.710;9.202;2022-10-31T11:55:14;19.60;99.90
5136;DHT22;2586;48.710;9.202;2022-10-31T11:57:49;19.50;99.90
5136;DHT22;2586;48.710;9.202;2022-10-31T12:03:11;19.30;1.00
5136;DHT22;2586;48.710;9.202;2022-10-31T12:05:39;19.30;1.00
5136;DHT22;2586;48.710;9.202;2022-10-31T12:08:11;19.30;1.00
5136;DHT22;2586;48.710;9.202;2022-10-31T12:11:06;19.20;1.00
5136;DHT22;2586;48.710;9.202;2022-10-31T12:16:13;19.80;99.90
5136;DHT22;2586;48.710;9.202;2022-10-31T12:21:59;20.20;99.90
5136;DHT22;2586;48.710;9.202;2022-10-31T12:30:27;19.60;99.90
5136;DHT22;2586;48.710;9.202;2022-10-31T12:33:15;19.30;1.00
5136;DHT22;2586;48.710;9.202;2022-10-31T12:36:15;19.10;1.00
5136;DHT22;2586;48.710;9.202;2022-10-31T12:38:52;18.90;1.00
5136;DHT22;2586;48.710;9.202;2022-10-31T12:41:27;18.70;1.00
5136;DHT22;2586;48.710;9.202;2022-10-31T12:44:08;18.60;1.00
5136;DHT22;2586;48.710;9.202;2022-10-31T12:46:51;18.30;1.00
5136;DHT22;2586;48.710;9.202;2022-10-31T12:52:50;18.00;99.90
5136;DHT22;2586;48.710;9.202;2022-10-31T12:55:44;17.90;1.00
5136;DHT22;2586;48.710;9.202;2022-10-31T12:58:21;17.80;1.00
5136;DHT22;2586;48.710;9.202;2022-10-31T13:00:55;17.80;1.00
5136;DHT22;2586;48.710;9.202;2022-10-31T13:03:35;17.60;99.90
5136;DHT22;2586;48.710;9.202;2022-10-31T13:06:08;17.70;1.00
5136;DHT22;2586;48.710;9.202;2022-10-31T13:08:50;17.60;99.90
5136;DHT22;2586;48.710;9.202;2022-10-31T13:11:45;17.60;99.90
5136;DHT22;2586;48.710;9.202;2022-10-31T13:14:36;17.60;1.00
5136;DHT22;2586;48.710;9.202;2022-10-31T13:17:04;17.50;1.00
5136;DHT22;2586;48.710;9.202;2022-10-31T13:19:43;17.50;1.00
5136;DHT22;2586;48.710;9.202;2022-10-31T13:22:17;17.50;1.00
5136;DHT22;2586;48.710;9.202;2022-10-31T13:25:02;17.50;1.00
5136;DHT22;2586;48.710;9.202;2022-10-31T13:27:40;17.40;99.90
5136;DHT22;2586;48.710;9.202;2022-10-31T13:30:22;17.40;1.00
5136;DHT22;2586;48.710;9.202;2022-10-31T13:32:50;17.50;1.00
5136;DHT22;2586;48.710;9.202;2022-10-31T13:35:23;17.70;1.00
5136;DHT22;2586;48.710;9.202;2022-10-31T13:40:54;19.70;1.00
5136;DHT22;2586;48.710;9.202;2022-10-31T13:45:54;21.40;99.90
5136;DHT22;2586;48.710;9.202;2022-10-31T13:48:34;21.20;99.90
5136;DHT22;2586;48.710;9.202;2022-10-31T13:51:09;20.70;99.90
5136;DHT22;2586;48.710;9.202;2022-10-31T13:53:43;20.40;99.90
5136;DHT22;2586;48.710;9.202;2022-10-31T13:58:34;20.00;99.90
5136;DHT22;2586;48.710;9.202;2022-10-31T14:01:21;20.20;99.90
5136;DHT22;2586;48.710;9.202;2022-10-31T14:03:59;20.40;99.90
5136;DHT22;2586;48.710;9.202;2022-10-31T14:06:51;20.50;99.90
5136;DHT22;2586;48.710;9.202;2022-10-31T14:09:30;20.40;99.90
5136;DHT22;2586;48.710;9.202;2022-10-31T14:12:01;20.50;99.90
5136;DHT22;2586;48.710;9.202;2022-10-31T14:14:33;22.40;99.90
5136;DHT22;2586;48.710;9.202;2022-10-31T14:17:00;23.40;99.90
5136;DHT22;2586;48.710;9.202;2022-10-31T14:19:26;24.40;99.90
5136;DHT22;2586;48.710;9.202;2022-10-31T14:21:52;24.70;99.90
5136;DHT22;2586;48.710;9.202;2022-10-31T14:27:01;25.40;84.60
5136;DHT22;2586;48.710;9.202;2022-10-31T14:29:30;25.80;57.40
5136;DHT22;2586;48.710;9.202;2022-10-31T14:34:50;24.80;49.50
5136;DHT22;2586;48.710;9.202;2022-10-31T14:37:20;23.90;51.90
5136;DHT22;2586;48.710;9.202;2022-10-31T14:39:53;23.00;59.10
5136;DHT22;2586;48.710;9.202;2022-10-31T14:50:59;20.70;99.90
5136;DHT22;2586;48.710;9.202;2022-10-31T14:53:29;20.30;99.90
5136;DHT22;2586;48.710;9.202;2022-10-31T14:55:56;20.00;99.90
5136;DHT22;2586;48.710;9.202;2022-10-31T14:58:28;19.70;99.90
5136;DHT22;2586;48.710;9.202;2022-10-31T15:00:56;19.80;99.90
5136;DHT22;2586;48.710;9.202;2022-10-31T15:05:56;20.80;99.90
5136;DHT22;2586;48.710;9.202;2022-10-31T15:10:56;20.30;99.90
5136;DHT22;2586;48.710;9.202;2022-10-31T15:13:22;19.90;99.90
5136;DHT22;2586;48.710;9.202;2022-10-31T15:15:50;19.60;99.90
5136;DHT22;2586;48.710;9.202;2022-10-31T15:18:21;19.30;99.90
5136;DHT22;2586;48.710;9.202;2022-10-31T15:20:49;18.90;1.00
5136;DHT22;2586;48.710;9.202;2022-10-31T15:23:24;18.30;99.90
5136;DHT22;2586;48.710;9.202;2022-10-31T15:25:50;17.90;1.00
5136;DHT22;2586;48.710;9.202;2022-10-31T15:28:24;17.70;1.00
5136;DHT22;2586;48.710;9.202;2022-10-31T15:30:55;17.40;99.90
5136;DHT22;2586;48.710;9.202;2022-10-31T15:33:39;17.20;99.90
5136;DHT22;2586;48.710;9.202;2022-10-31T15:36:05;17.00;1.00
5136;DHT22;2586;48.710;9.202;2022-10-31T15:38:31;16.90;1.00
5136;DHT22;2586;48.710;9.202;2022-10-31T15:41:05;16.70;1.00
5136;DHT22;2586;48.710;9.202;2022-10-31T15:43:38;16.50;85.70
5136;DHT22;2586;48.710;9.202;2022-10-31T15:46:04;16.30;99.90
5136;DHT22;2586;48.710;9.202;2022-10-31T15:48:32;16.20;37.00
5136;DHT22;2586;48.710;9.202;2022-10-31T15:51:00;16.00;99.90
5136;DHT22;2586;48.710;9.202;2022-10-31T15:53:36;15.80;1.00
5136;DHT22;2586;48.710;9.202;2022-10-31T15:56:07;15.60;99.90
5136;DHT22;2586;48.710;9.202;2022-10-31T15:58:44;15.50;1.00
5136;DHT22;2586;48.710;9.202;2022-10-31T16:01:24;15.40;1.00
5136;DHT22;2586;48.710;9.202;2022-10-31T16:06:37;15.30;1.00
5136;DHT22;2586;48.710;9.202;2022-10-31T16:09:03;15.20;1.00
5136;DHT22;2586;48.710;9.202;2022-10-31T16:11:43;15.20;90.80
5136;DHT22;2586;48.710;9.202;2022-10-31T16:16:46;15.10;99.90
5136;DHT22;2586;48.710;9.202;2022-10-31T16:21:48;14.70;1.00
5136;DHT22;2586;48.710;9.202;2022-10-31T16:24:16;14.70;1.00
5136;DHT22;2586;48.710;9.202;2022-10-31T16:26:48;14.60;99.90
5136;DHT22;2586;48.710;9.202;2022-10-31T16:29:47;14.30;99.90
5136;DHT22;2586;48.710;9.202;2022-10-31T16:32:33;14.20;99.90
5136;DHT22;2586;48.710;9.202;2022-10-31T16:35:18;14.20;99.90
5136;DHT22;2586;48.710;9.202;2022-10-31T16:37:44;14.20;99.90
5136;DHT22;2586;48.710;9.202;2022-10-31T16:40:11;14.10;99.90
5136;DHT22;2586;48.710;9.202;2022-10-31T16:42:38;14.00;1.00
5136;DHT22;2586;48.710;9.202;2022-10-31T16:45:05;13.90;99.90
5136;DHT22;2586;48.710;9.202;2022-10-31T16:47:31;13.80;1.00
5136;DHT22;2586;48.710;9.202;2022-10-31T16:49:56;13.80;99.90
5136;DHT22;2586;48.710;9.202;2022-10-31T16:52:25;13.70;99.90
5136;DHT22;2586;48.710;9.202;2022-10-31T16:54:51;13.50;1.00
5136;DHT22;2586;48.710;9.202;2022-10-31T16:57:19;13.50;1.00
5136;DHT22;2586;48.710;9.202;2022-10-31T16:59:48;13.40;99.90
5136;DHT22;2586;48.710;9.202;2022-10-31T17:02:16;13.40;99.90
5136;DHT22;2586;48.710;9.202;2022-10-31T17:04:43;13.40;99.90
5136;DHT22;2586;48.710;9.202;2022-10-31T17:07:09;13.40;73.20
5136;DHT22;2586;48.710;9.202;2022-10-31T17:09:34;13.30;99.90
5136;DHT22;2586;48.710;9.202;2022-10-31T17:12:00;13.30;94.10
5136;DHT22;2586;48.710;9.202;2022-10-31T17:14:26;13.30;99.90
5136;DHT22;2586;48.710;9.202;2022-10-31T17:16:51;13.20;99.90
5136;DHT22;2586;48.710;9.202;2022-10-31T17:19:17;13.10;99.90
5136;DHT22;2586;48.710;9.202;2022-10-31T17:21:42;13.00;1.00
5136;DHT22;2586;48.710;9.202;2022-10-31T17:24:12;13.00;1.00
5136;DHT22;2586;48.710;9.202;2022-10-31T17:26:38;12.90;1.00
5136;DHT22;2586;48.710;9.202;2022-10-31T17:29:04;12.80;1.00
5136;DHT22;2586;48.710;9.202;2022-10-31T17:31:31;12.80;1.00
5136;DHT22;2586;48.710;9.202;2022-10-31T17:33:58;12.80;1.00
5136;DHT22;2586;48.710;9.202;2022-10-31T17:36:24;12.80;1.00
5136;DHT22;2586;48.710;9.202;2022-10-31T17:38:50;12.60;1.00
5136;DHT22;2586;48.710;9.202;2022-10-31T17:41:16;12.50;1.00
5136;DHT22;2586;48.710;9.202;2022-10-31T17:43:41;12.50;1.00
5136;DHT22;2586;48.710;9.202;2022-10-31T17:46:07;12.40;1.00
5136;DHT22;2586;48.710;9.202;2022-10-31T17:48:35;12.30;1.00
5136;DHT22;2586;48.710;9.202;2022-10-31T17:51:02;12.30;1.00
5136;DHT22;2586;48.710;9.202;2022-10-31T17:53:29;12.30;96.90
5136;DHT22;2586;48.710;9.202;2022-10-31T17:56:00;12.40;99.30
5136;DHT22;2586;48.710;9.202;2022-10-31T17:58:26;12.30;1.00
5136;DHT22;2586;48.710;9.202;2022-10-31T18:00:52;12.30;1.00
5136;DHT22;2586;48.710;9.202;2022-10-31T18:03:17;12.30;1.00
5136;DHT22;2586;48.710;9.202;2022-10-31T18:06:03;12.30;1.00
5136;DHT22;2586;48.710;9.202;2022-10-31T18:08:31;12.30;1.00
5136;DHT22;2586;48.710;9.202;2022-10-31T18:10:57;12.30;1.00
5136;DHT22;2586;48.710;9.202;2022-10-31T18:13:28;12.30;1.00
5136;DHT22;2586;48.710;9.202;2022-10-31T18:15:54;12.30;1.00
5136;DHT22;2586;48.710;9.202;2022-10-31T18:18:20;12.10;1.00
5136;DHT22;2586;48.710;9.202;2022-10-31T18:20:45;11.90;1.00
5136;DHT22;2586;48.710;9.202;2022-10-31T18:23:11;11.60;1.00